Time;durP1;ratioP1;P1;durP2;ratioP2;P2;SDS_P1;SDS_P2;PMS_P1;PMS_P2;Temp;Humidity;BMP_temperature;BMP_pressure;BME280_temperature;BME280_humidity;BME280_pressure;Samples;Min_cycle;Max_cycle;Signal;HPM_P1;HPM_P2
2022/06/20 00:00:40;;;;;;;8.50;5.82;;;;;;;;;;5011258;28;20207;-31
2022/06/20 00:03:09;;;;;;;9.60;6.22;;;;;;;;;;5009161;28;20195;-32
2022/06/20 00:05:37;;;;;;;10.20;6.10;;;;;;;;;;5008705;28;20294;-33
2022/06/20 00:08:04;;;;;;;10.65;5.97;;;;;;;;;;5021544;28;20210;-32
2022/06/20 00:10:32;;;;;;;11.20;6.15;;;;;;;;;;5028735;28;20237;-30
2022/06/20 00:12:59;;;;;;;7.95;5.57;;;;;;;;;;5020376;28;20223;-29
2022/06/20 00:15:29;;;;;;;8.65;5.25;;;;;;;;;;5023058;28;20211;-31
2022/06/20 00:17:57;;;;;;;8.95;5.80;;;;;;;;;;5012156;28;20243;-34
2022/06/20 00:20:25;;;;;;;9.35;6.28;;;;;;;;;;5018657;28;20207;-33
2022/06/20 00:22:52;;;;;;;9.27;5.57;;;;;;;;;;5020853;28;20570;-31
2022/06/20 00:25:19;;;;;;;8.48;5.57;;;;;;;;;;5010562;28;20209;-32
2022/06/20 00:27:47;;;;;;;9.25;5.80;;;;;;;;;;5012126;28;20700;-32
2022/06/20 00:30:15;;;;;;;9.10;6.05;;;;;;;;;;5012445;28;20195;-32
2022/06/20 00:32:43;;;;;;;8.65;6.10;;;;;;;;;;5012172;28;20231;-32
2022/06/20 00:35:11;;;;;;;11.10;6.25;;;;;;;;;;5011823;28;20203;-33
2022/06/20 00:37:38;;;;;;;7.50;5.65;;;;;;;;;;5020401;28;20230;-32
2022/06/20 00:40:06;;;;;;;8.70;6.40;;;;;;;;;;5012960;28;20211;-34
2022/06/20 00:42:33;;;;;;;8.52;6.53;;;;;;;;;;5010282;28;20218;-30
2022/06/20 00:45:03;;;;;;;13.20;6.15;;;;;;;;;;5024046;28;20213;-31
2022/06/20 00:47:32;;;;;;;13.20;6.18;;;;;;;;;;5014899;28;20230;-32
2022/06/20 00:50:04;;;;;;;10.07;6.15;;;;;;;;;;5015292;28;20203;-31
2022/06/20 00:52:35;;;;;;;9.63;5.53;;;;;;;;;;5011338;28;20233;-31
2022/06/20 00:55:04;;;;;;;10.05;5.93;;;;;;;;;;5014811;28;20191;-34
2022/06/20 00:57:33;;;;;;;10.45;5.90;;;;;;;;;;5022001;28;20247;-35
2022/06/20 01:00:03;;;;;;;9.52;5.82;;;;;;;;;;5027260;28;20206;-32
2022/06/20 01:02:33;;;;;;;11.15;5.90;;;;;;;;;;5023064;28;20206;-34
2022/06/20 01:05:03;;;;;;;10.68;6.75;;;;;;;;;;5017330;28;20213;-32
2022/06/20 01:07:33;;;;;;;9.30;5.95;;;;;;;;;;5028618;28;20226;-31
2022/06/20 01:10:01;;;;;;;6.93;5.95;;;;;;;;;;5028347;28;20215;-34
2022/06/20 01:12:30;;;;;;;9.57;6.00;;;;;;;;;;5021898;28;20236;-33
2022/06/20 01:14:57;;;;;;;8.18;5.60;;;;;;;;;;5023887;28;20202;-30
2022/06/20 01:17:27;;;;;;;9.15;6.05;;;;;;;;;;5026846;28;20227;-33
2022/06/20 01:19:57;;;;;;;7.13;5.88;;;;;;;;;;5021409;28;20217;-35
2022/06/20 01:22:42;;;;;;;8.02;5.32;;;;;;;;;;5027343;28;20213;-32
2022/06/20 01:25:20;;;;;;;14.25;6.25;;;;;;;;;;5031373;28;20194;-34
2022/06/20 01:27:49;;;;;;;12.55;6.38;;;;;;;;;;5022531;28;20233;-33
2022/06/20 01:30:16;;;;;;;7.63;6.35;;;;;;;;;;5014199;28;20207;-35
2022/06/20 01:32:44;;;;;;;8.98;6.38;;;;;;;;;;5021102;28;20234;-31
2022/06/20 01:37:23;;;;;;;6.75;5.93;;;;;;;;;;5016772;28;20205;-34
2022/06/20 01:38:00;;;;;;;8.75;6.30;;;;;;;;;;5010931;28;20217;-30
2022/06/20 01:40:27;;;;;;;8.15;6.00;;;;;;;;;;5009588;28;20221;-32
2022/06/20 01:42:55;;;;;;;11.35;5.95;;;;;;;;;;5026491;28;20217;-31
2022/06/20 01:48:09;;;;;;;12.25;6.57;;;;;;;;;;5009147;28;20304;-32
2022/06/20 01:50:36;;;;;;;8.77;6.13;;;;;;;;;;5020527;28;20479;-30
2022/06/20 01:53:05;;;;;;;13.45;6.15;;;;;;;;;;5022953;28;20233;-30
2022/06/20 01:55:32;;;;;;;11.52;6.88;;;;;;;;;;5030147;28;20209;-31
2022/06/20 01:58:05;;;;;;;12.02;6.35;;;;;;;;;;5019953;28;20218;-34
2022/06/20 02:00:33;;;;;;;7.65;5.85;;;;;;;;;;5026313;28;20213;-33
2022/06/20 02:03:03;;;;;;;8.88;6.60;;;;;;;;;;5024817;28;20210;-31
2022/06/20 02:05:31;;;;;;;11.05;6.47;;;;;;;;;;5019049;28;20223;-34
2022/06/20 02:08:00;;;;;;;10.23;6.32;;;;;;;;;;5030241;28;20229;-30
2022/06/20 02:10:29;;;;;;;8.15;5.85;;;;;;;;;;5030113;28;20212;-28
2022/06/20 02:12:59;;;;;;;9.98;6.10;;;;;;;;;;5018035;28;20226;-33
2022/06/20 02:15:28;;;;;;;11.43;6.80;;;;;;;;;;5020802;28;20207;-32
2022/06/20 02:17:56;;;;;;;12.68;6.53;;;;;;;;;;5023763;28;20227;-31
2022/06/20 02:20:25;;;;;;;12.23;5.95;;;;;;;;;;5024680;28;20217;-30
2022/06/20 02:22:53;;;;;;;9.38;6.32;;;;;;;;;;5010768;28;20227;-32
2022/06/20 02:25:23;;;;;;;8.07;6.30;;;;;;;;;;5008068;28;20210;-32
2022/06/20 02:27:53;;;;;;;7.57;5.85;;;;;;;;;;5016228;28;20229;-30
2022/06/20 02:30:20;;;;;;;11.65;6.53;;;;;;;;;;5016161;28;20205;-31
2022/06/20 02:32:50;;;;;;;9.00;6.50;;;;;;;;;;5025325;28;20297;-31
2022/06/20 02:35:19;;;;;;;12.23;6.78;;;;;;;;;;5017587;28;20225;-32
2022/06/20 02:37:46;;;;;;;8.88;6.50;;;;;;;;;;5011168;28;20292;-33
2022/06/20 02:40:16;;;;;;;9.32;5.90;;;;;;;;;;5013602;28;20208;-33
2022/06/20 02:42:57;;;;;;;13.38;6.47;;;;;;;;;;5028131;28;20197;-31
2022/06/20 02:45:25;;;;;;;10.18;6.55;;;;;;;;;;5015554;28;20207;-31
2022/06/20 02:48:04;;;;;;;10.75;6.75;;;;;;;;;;5010637;28;20239;-32
2022/06/20 02:50:33;;;;;;;10.52;7.05;;;;;;;;;;5023637;28;20299;-31
2022/06/20 02:53:03;;;;;;;9.80;6.90;;;;;;;;;;5028954;28;20243;-30
2022/06/20 02:55:31;;;;;;;10.75;6.72;;;;;;;;;;5024607;28;20204;-28
2022/06/20 02:57:59;;;;;;;10.20;7.43;;;;;;;;;;5023656;28;20267;-33
2022/06/20 03:00:28;;;;;;;8.60;6.72;;;;;;;;;;5024862;28;20217;-30
2022/06/20 03:03:03;;;;;;;7.68;6.15;;;;;;;;;;5022227;28;20209;-35
2022/06/20 03:05:30;;;;;;;10.45;6.78;;;;;;;;;;5019219;28;20212;-32
2022/06/20 03:07:57;;;;;;;10.70;6.45;;;;;;;;;;5009138;28;20240;-30
2022/06/20 03:10:26;;;;;;;9.70;6.70;;;;;;;;;;5012140;28;20208;-33
2022/06/20 03:12:54;;;;;;;11.55;7.15;;;;;;;;;;5027508;28;20221;-32
2022/06/20 03:15:21;;;;;;;8.35;6.72;;;;;;;;;;5028382;28;20267;-31
2022/06/20 03:17:49;;;;;;;9.25;7.03;;;;;;;;;;5023602;28;20237;-34
2022/06/20 03:20:19;;;;;;;12.02;7.68;;;;;;;;;;5009817;28;20212;-29
2022/06/20 03:22:48;;;;;;;12.00;7.43;;;;;;;;;;5012410;28;20232;-32
2022/06/20 03:25:16;;;;;;;14.77;7.30;;;;;;;;;;5018709;28;20196;-31
2022/06/20 03:27:44;;;;;;;16.83;8.15;;;;;;;;;;5032522;28;20255;-31
2022/06/20 03:30:26;;;;;;;14.98;8.02;;;;;;;;;;5026911;28;20201;-31
2022/06/20 03:32:53;;;;;;;16.02;7.70;;;;;;;;;;5023537;28;20220;-31
2022/06/20 03:35:22;;;;;;;18.65;8.45;;;;;;;;;;5017384;28;20212;-32
2022/06/20 03:37:49;;;;;;;16.73;7.90;;;;;;;;;;5022846;28;20228;-31
2022/06/20 03:40:16;;;;;;;16.05;7.20;;;;;;;;;;5030415;28;20203;-29
2022/06/20 03:42:44;;;;;;;12.55;7.47;;;;;;;;;;5013735;28;20207;-33
2022/06/20 03:45:12;;;;;;;13.40;6.97;;;;;;;;;;5022223;28;20209;-35
2022/06/20 03:47:44;;;;;;;11.32;7.80;;;;;;;;;;5003925;28;20293;-30
2022/06/20 03:50:14;;;;;;;11.50;6.78;;;;;;;;;;5015092;28;20212;-32
2022/06/20 03:52:45;;;;;;;14.52;7.72;;;;;;;;;;5025576;28;20251;-31
2022/06/20 03:55:16;;;;;;;14.57;7.93;;;;;;;;;;5036030;28;20192;-35
2022/06/20 03:57:47;;;;;;;10.10;6.63;;;;;;;;;;5029736;28;20597;-29
2022/06/20 04:00:15;;;;;;;10.52;6.90;;;;;;;;;;5027177;28;20625;-30
2022/06/20 04:02:45;;;;;;;17.02;7.57;;;;;;;;;;5031451;28;20209;-30
2022/06/20 04:05:14;;;;;;;17.88;7.15;;;;;;;;;;5021215;28;20201;-30
2022/06/20 04:07:45;;;;;;;15.10;7.28;;;;;;;;;;5017923;28;20220;-34
2022/06/20 04:13:02;;;;;;;11.25;7.18;;;;;;;;;;5023257;28;20232;-31
2022/06/20 04:15:31;;;;;;;12.88;7.68;;;;;;;;;;5023506;28;20210;-33
2022/06/20 04:20:50;;;;;;;17.40;8.27;;;;;;;;;;5025576;28;20203;-32
2022/06/20 04:23:20;;;;;;;10.05;7.65;;;;;;;;;;5032752;28;20203;-30
2022/06/20 04:25:51;;;;;;;13.18;8.15;;;;;;;;;;5034458;28;20192;-30
2022/06/20 04:28:23;;;;;;;13.30;7.90;;;;;;;;;;5018552;28;20213;-32
2022/06/20 04:30:54;;;;;;;15.35;7.70;;;;;;;;;;5024908;28;20205;-30
2022/06/20 04:33:24;;;;;;;14.27;7.30;;;;;;;;;;5027649;28;20216;-32
2022/06/20 04:35:55;;;;;;;10.23;7.88;;;;;;;;;;5022407;28;20197;-29
2022/06/20 04:38:26;;;;;;;12.15;7.65;;;;;;;;;;5012490;28;20208;-31
2022/06/20 04:40:58;;;;;;;9.90;7.03;;;;;;;;;;5014483;28;20209;-32
2022/06/20 04:43:29;;;;;;;17.83;7.53;;;;;;;;;;5013347;28;20257;-30
2022/06/20 04:45:59;;;;;;;14.18;7.78;;;;;;;;;;5014321;28;20222;-29
2022/06/20 04:48:27;;;;;;;12.40;7.57;;;;;;;;;;5023172;28;20203;-31
2022/06/20 04:50:56;;;;;;;13.80;7.13;;;;;;;;;;5014553;28;20201;-31
2022/06/20 04:53:25;;;;;;;15.32;7.60;;;;;;;;;;5014214;28;20231;-27
2022/06/20 04:55:54;;;;;;;14.90;7.55;;;;;;;;;;5012823;28;20196;-33
2022/06/20 04:58:23;;;;;;;9.48;6.78;;;;;;;;;;5013955;28;20210;-31
2022/06/20 05:00:52;;;;;;;11.00;7.32;;;;;;;;;;5024506;28;20197;-31
2022/06/20 05:03:21;;;;;;;13.23;6.75;;;;;;;;;;5028638;28;20215;-28
2022/06/20 05:05:50;;;;;;;11.45;8.10;;;;;;;;;;5023009;28;20203;-28
2022/06/20 05:08:23;;;;;;;13.85;7.32;;;;;;;;;;5014409;28;20202;-35
2022/06/20 05:10:53;;;;;;;12.48;7.43;;;;;;;;;;5013903;28;20217;-30
2022/06/20 05:13:23;;;;;;;11.52;8.00;;;;;;;;;;5013049;28;20232;-32
2022/06/20 05:15:51;;;;;;;11.65;6.70;;;;;;;;;;5032468;28;20201;-31
2022/06/20 05:18:28;;;;;;;13.63;6.88;;;;;;;;;;5018036;28;20202;-35
2022/06/20 05:20:58;;;;;;;12.70;7.40;;;;;;;;;;5013841;28;20201;-31
2022/06/20 05:23:28;;;;;;;14.30;7.38;;;;;;;;;;5029299;28;20198;-32
2022/06/20 05:25:58;;;;;;;11.48;6.55;;;;;;;;;;5031450;28;20228;-32
2022/06/20 05:28:25;;;;;;;11.25;6.70;;;;;;;;;;5027430;28;20200;-32
2022/06/20 05:30:53;;;;;;;18.75;8.45;;;;;;;;;;5033988;28;20202;-29
2022/06/20 05:33:24;;;;;;;10.80;7.07;;;;;;;;;;5024231;28;20224;-29
2022/06/20 05:35:53;;;;;;;12.77;8.85;;;;;;;;;;5021035;28;20224;-33
2022/06/20 05:38:24;;;;;;;10.63;7.38;;;;;;;;;;5013207;28;20199;-28
2022/06/20 05:40:53;;;;;;;11.75;8.48;;;;;;;;;;5013579;28;20220;-33
2022/06/20 05:43:22;;;;;;;11.30;7.70;;;;;;;;;;5028872;28;20655;-32
2022/06/20 05:45:52;;;;;;;10.50;7.43;;;;;;;;;;5022670;28;20298;-30
2022/06/20 05:48:20;;;;;;;11.43;6.13;;;;;;;;;;5024207;28;20269;-31
2022/06/20 05:50:52;;;;;;;12.95;7.78;;;;;;;;;;5016402;28;20197;-30
2022/06/20 05:53:24;;;;;;;11.52;7.60;;;;;;;;;;5033121;28;20217;-31
2022/06/20 05:58:20;;;;;;;13.77;7.40;;;;;;;;;;5042532;28;20211;-38
2022/06/20 06:00:51;;;;;;;10.77;6.93;;;;;;;;;;5034764;28;20204;-39
2022/06/20 06:03:20;;;;;;;13.43;8.55;;;;;;;;;;5027635;28;20201;-33
2022/06/20 06:05:49;;;;;;;13.15;8.05;;;;;;;;;;5027074;28;20210;-38
2022/06/20 06:08:19;;;;;;;12.23;8.18;;;;;;;;;;5033101;28;20199;-35
2022/06/20 06:10:48;;;;;;;13.40;8.65;;;;;;;;;;5032639;28;20213;-40
2022/06/20 06:13:23;;;;;;;9.45;7.05;;;;;;;;;;5032099;28;20228;-35
2022/06/20 06:18:45;;;;;;;12.38;7.72;;;;;;;;;;5031648;28;20221;-33
2022/06/20 06:21:12;;;;;;;15.38;8.63;;;;;;;;;;5038680;28;20296;-38
2022/06/20 06:23:40;;;;;;;10.00;8.38;;;;;;;;;;5033127;28;20203;-38
2022/06/20 06:26:07;;;;;;;14.60;8.82;;;;;;;;;;5034032;28;20229;-34
2022/06/20 06:28:34;;;;;;;11.55;7.72;;;;;;;;;;5033480;28;20209;-31
2022/06/20 06:31:04;;;;;;;14.00;7.93;;;;;;;;;;5033435;28;20217;-36
2022/06/20 06:33:33;;;;;;;10.40;7.47;;;;;;;;;;5029000;28;20228;-34
2022/06/20 06:36:04;;;;;;;16.42;7.88;;;;;;;;;;5034621;28;20221;-36
2022/06/20 06:38:33;;;;;;;10.68;7.65;;;;;;;;;;5030067;28;20280;-35
2022/06/20 06:41:02;;;;;;;15.98;8.15;;;;;;;;;;5026234;28;20212;-37
2022/06/20 06:43:32;;;;;;;12.75;8.05;;;;;;;;;;5029417;28;20205;-35
2022/06/20 06:46:01;;;;;;;10.60;7.53;;;;;;;;;;5030099;28;20220;-34
2022/06/20 06:48:33;;;;;;;14.90;8.43;;;;;;;;;;5032035;28;20215;-36
2022/06/20 06:51:02;;;;;;;14.40;8.98;;;;;;;;;;5027951;28;20210;-34
2022/06/20 06:53:33;;;;;;;15.82;9.10;;;;;;;;;;5029506;28;20266;-29
2022/06/20 06:56:02;;;;;;;16.88;8.77;;;;;;;;;;5024147;28;20237;-39
2022/06/20 06:58:33;;;;;;;15.60;8.98;;;;;;;;;;5030054;28;20219;-40
2022/06/20 07:01:06;;;;;;;14.80;9.02;;;;;;;;;;5022150;28;20206;-38
2022/06/20 07:03:36;;;;;;;13.25;8.60;;;;;;;;;;5032939;28;20205;-35
2022/06/20 07:06:06;;;;;;;13.82;8.82;;;;;;;;;;5029826;28;20229;-39
2022/06/20 07:08:36;;;;;;;11.48;7.78;;;;;;;;;;5030139;28;20212;-39
2022/06/20 07:11:07;;;;;;;11.18;8.20;;;;;;;;;;5027601;28;20215;-34
2022/06/20 07:13:35;;;;;;;14.60;8.43;;;;;;;;;;5031803;28;20226;-32
2022/06/20 07:16:04;;;;;;;14.95;8.60;;;;;;;;;;5030036;28;20226;-33
2022/06/20 07:18:47;;;;;;;12.10;8.30;;;;;;;;;;5036461;28;20219;-37
2022/06/20 07:21:17;;;;;;;12.30;8.80;;;;;;;;;;5029867;28;20212;-39
2022/06/20 07:23:45;;;;;;;18.55;8.52;;;;;;;;;;5029512;28;20204;-34
2022/06/20 07:26:13;;;;;;;16.25;9.30;;;;;;;;;;5032525;28;20222;-32
2022/06/20 07:28:42;;;;;;;18.05;8.88;;;;;;;;;;5034586;28;20203;-37
2022/06/20 07:31:12;;;;;;;16.73;9.55;;;;;;;;;;5034391;28;20198;-35
2022/06/20 07:33:43;;;;;;;12.05;9.07;;;;;;;;;;5023375;28;20229;-35
2022/06/20 07:36:12;;;;;;;13.02;8.48;;;;;;;;;;5033004;28;20236;-33
2022/06/20 07:38:42;;;;;;;16.40;8.30;;;;;;;;;;5032878;28;20224;-34
2022/06/20 07:41:13;;;;;;;12.02;7.72;;;;;;;;;;5031802;28;20207;-41
2022/06/20 07:43:42;;;;;;;15.25;8.38;;;;;;;;;;5025099;28;20209;-35
2022/06/20 07:46:12;;;;;;;15.10;8.98;;;;;;;;;;5032434;28;20313;-38
2022/06/20 07:48:41;;;;;;;12.82;7.57;;;;;;;;;;5034357;28;20213;-34
2022/06/20 07:51:11;;;;;;;13.75;7.60;;;;;;;;;;5032367;28;20228;-36
2022/06/20 07:53:40;;;;;;;10.45;6.38;;;;;;;;;;5032634;28;20199;-39
2022/06/20 07:56:10;;;;;;;11.73;6.93;;;;;;;;;;5030086;28;20229;-34
2022/06/20 07:58:39;;;;;;;11.50;6.32;;;;;;;;;;5039241;28;20214;-41
2022/06/20 08:01:12;;;;;;;7.78;6.20;;;;;;;;;;5033097;28;20206;-35
2022/06/20 08:03:43;;;;;;;11.85;6.65;;;;;;;;;;5040544;28;20209;-30
2022/06/20 08:06:15;;;;;;;12.10;6.90;;;;;;;;;;5032457;28;20226;-37
2022/06/20 08:08:45;;;;;;;10.38;7.13;;;;;;;;;;5032646;28;20202;-37
2022/06/20 08:11:39;;;;;;;13.27;7.20;;;;;;;;;;5037950;28;20204;-39
2022/06/20 08:14:03;;;;;;;7.55;6.15;;;;;;;;;;5026967;28;20329;-38
2022/06/20 08:16:31;;;;;;;10.45;5.97;;;;;;;;;;5032299;28;20231;-40
2022/06/20 08:19:01;;;;;;;9.90;6.07;;;;;;;;;;5041877;28;20202;-33
2022/06/20 08:21:30;;;;;;;13.57;6.63;;;;;;;;;;5031839;28;20226;-31
2022/06/20 08:23:59;;;;;;;10.90;7.00;;;;;;;;;;5031973;28;20285;-37
2022/06/20 08:26:30;;;;;;;11.43;6.72;;;;;;;;;;5031306;28;20240;-34
2022/06/20 08:28:58;;;;;;;11.05;6.38;;;;;;;;;;5034541;28;20268;-33
2022/06/20 08:31:30;;;;;;;14.02;5.97;;;;;;;;;;5031676;28;20205;-35
2022/06/20 08:34:00;;;;;;;9.95;6.22;;;;;;;;;;5039280;28;20676;-34
2022/06/20 08:36:32;;;;;;;11.88;6.00;;;;;;;;;;5031107;28;20231;-36
2022/06/20 08:39:03;;;;;;;10.90;6.30;;;;;;;;;;5031707;28;20229;-34
2022/06/20 08:41:42;;;;;;;8.98;5.90;;;;;;;;;;5036804;28;20209;-38
2022/06/20 08:44:30;;;;;;;7.82;5.90;;;;;;;;;;5025101;28;20205;-37
2022/06/20 08:47:07;;;;;;;10.25;5.40;;;;;;;;;;5017646;28;20219;-33
2022/06/20 08:50:05;;;;;;;11.15;5.43;;;;;;;;;;5035603;28;20213;-34
2022/06/20 08:53:06;;;;;;;12.85;6.22;;;;;;;;;;4950787;29;20206;-32
2022/06/20 08:55:49;;;;;;;12.43;5.72;;;;;;;;;;5029524;28;20226;-35
2022/06/20 08:58:22;;;;;;;11.25;5.95;;;;;;;;;;5030378;28;20214;-31
2022/06/20 09:00:52;;;;;;;10.10;5.40;;;;;;;;;;5031190;28;20212;-32
2022/06/20 09:03:28;;;;;;;9.02;5.47;;;;;;;;;;5028320;28;20224;-32
2022/06/20 09:06:04;;;;;;;8.23;5.22;;;;;;;;;;5031125;28;20230;-32
2022/06/20 09:08:45;;;;;;;7.35;5.07;;;;;;;;;;5031139;28;20210;-41
2022/06/20 09:11:18;;;;;;;7.60;5.30;;;;;;;;;;5031500;28;20217;-37
2022/06/20 09:13:54;;;;;;;7.28;4.78;;;;;;;;;;5021477;28;20210;-33
2022/06/20 09:16:25;;;;;;;8.82;5.03;;;;;;;;;;5030683;28;20220;-36
2022/06/20 09:18:59;;;;;;;9.07;5.00;;;;;;;;;;5034641;28;20202;-32
2022/06/20 09:21:30;;;;;;;8.25;5.00;;;;;;;;;;5030512;28;20198;-33
2022/06/20 09:24:14;;;;;;;11.30;5.38;;;;;;;;;;5030733;28;20217;-39
2022/06/20 09:26:42;;;;;;;9.15;5.10;;;;;;;;;;5031190;28;20226;-35
2022/06/20 09:29:33;;;;;;;10.23;5.00;;;;;;;;;;5030436;28;20234;-39
2022/06/20 09:32:08;;;;;;;7.97;5.30;;;;;;;;;;5028440;28;20216;-38
2022/06/20 09:34:46;;;;;;;10.73;5.47;;;;;;;;;;5033177;28;20228;-37
2022/06/20 09:37:32;;;;;;;8.52;4.80;;;;;;;;;;5030343;28;20222;-40
2022/06/20 09:40:03;;;;;;;13.15;5.85;;;;;;;;;;5031787;28;20206;-40
2022/06/20 09:42:36;;;;;;;11.85;6.32;;;;;;;;;;5030697;28;20207;-35
2022/06/20 09:45:09;;;;;;;12.65;5.95;;;;;;;;;;5026264;28;20199;-32
2022/06/20 09:47:41;;;;;;;10.45;5.75;;;;;;;;;;5034805;28;20225;-36
2022/06/20 09:50:17;;;;;;;8.60;5.22;;;;;;;;;;5044726;28;20216;-40
2022/06/20 09:52:51;;;;;;;11.25;6.10;;;;;;;;;;5033069;28;20206;-39
2022/06/20 09:55:22;;;;;;;9.00;5.20;;;;;;;;;;5026842;28;20222;-32
2022/06/20 09:57:53;;;;;;;14.18;5.88;;;;;;;;;;5029338;28;20246;-35
2022/06/20 10:00:21;;;;;;;8.02;5.43;;;;;;;;;;5029484;28;20210;-38
2022/06/20 10:02:52;;;;;;;7.97;5.00;;;;;;;;;;5031885;28;20209;-34
2022/06/20 10:05:23;;;;;;;8.45;5.15;;;;;;;;;;5035426;28;20195;-37
2022/06/20 10:07:53;;;;;;;7.38;4.95;;;;;;;;;;5029644;28;20226;-38
2022/06/20 10:10:22;;;;;;;11.65;5.18;;;;;;;;;;5030356;28;20218;-37
2022/06/20 10:12:54;;;;;;;8.20;4.70;;;;;;;;;;5031874;28;20221;-33
2022/06/20 10:15:24;;;;;;;7.25;4.50;;;;;;;;;;5029595;28;20222;-35
2022/06/20 10:17:55;;;;;;;11.95;4.97;;;;;;;;;;5026410;28;20230;-40
2022/06/20 10:20:25;;;;;;;6.68;4.78;;;;;;;;;;5030591;28;20218;-32
2022/06/20 10:22:56;;;;;;;11.93;5.97;;;;;;;;;;5030978;28;20210;-36
2022/06/20 10:25:33;;;;;;;9.80;4.53;;;;;;;;;;5026444;28;20206;-32
2022/06/20 10:28:04;;;;;;;8.20;5.10;;;;;;;;;;5034725;28;20210;-35
2022/06/20 10:30:37;;;;;;;7.82;4.45;;;;;;;;;;5031165;28;20195;-38
2022/06/20 10:33:10;;;;;;;9.43;5.38;;;;;;;;;;5028761;28;20205;-31
2022/06/20 10:35:44;;;;;;;11.45;5.20;;;;;;;;;;5023999;28;20241;-34
2022/06/20 10:38:15;;;;;;;6.65;4.80;;;;;;;;;;5029844;28;20229;-35
2022/06/20 10:40:46;;;;;;;10.20;4.93;;;;;;;;;;5030246;28;20214;-33
2022/06/20 10:43:21;;;;;;;7.65;5.28;;;;;;;;;;5026866;28;20195;-33
2022/06/20 10:45:52;;;;;;;8.40;5.40;;;;;;;;;;5028779;28;20285;-34
2022/06/20 10:48:37;;;;;;;12.90;4.78;;;;;;;;;;5031471;28;20202;-35
2022/06/20 10:51:08;;;;;;;11.48;4.88;;;;;;;;;;5029700;28;20396;-37
2022/06/20 10:53:40;;;;;;;9.02;4.60;;;;;;;;;;5029231;28;20213;-38
2022/06/20 10:56:10;;;;;;;10.48;5.18;;;;;;;;;;5027158;28;20230;-40
2022/06/20 10:58:46;;;;;;;8.35;4.68;;;;;;;;;;5034422;28;20210;-33
2022/06/20 11:01:16;;;;;;;6.82;3.92;;;;;;;;;;5029829;28;20198;-37
2022/06/20 11:03:59;;;;;;;9.15;5.00;;;;;;;;;;5023765;28;20350;-33
2022/06/20 11:06:30;;;;;;;9.48;4.47;;;;;;;;;;5025290;28;20218;-36
2022/06/20 11:09:01;;;;;;;11.32;4.90;;;;;;;;;;5029761;28;20210;-39
2022/06/20 11:11:33;;;;;;;8.13;4.75;;;;;;;;;;5028122;28;20252;-38
2022/06/20 11:14:06;;;;;;;7.47;4.55;;;;;;;;;;5042599;28;20206;-33
2022/06/20 11:16:37;;;;;;;9.43;4.40;;;;;;;;;;5029887;28;20226;-37
2022/06/20 11:19:13;;;;;;;13.70;4.85;;;;;;;;;;5030597;28;20198;-35
2022/06/20 11:21:44;;;;;;;7.85;3.92;;;;;;;;;;5026667;28;20206;-33
2022/06/20 11:24:15;;;;;;;9.73;4.07;;;;;;;;;;5029740;28;20206;-36
2022/06/20 11:26:47;;;;;;;8.38;4.18;;;;;;;;;;5023396;28;20226;-39
2022/06/20 11:29:24;;;;;;;7.28;4.18;;;;;;;;;;5029424;28;20207;-33
2022/06/20 11:31:55;;;;;;;8.07;4.32;;;;;;;;;;5027544;28;20220;-34
2022/06/20 11:34:32;;;;;;;6.47;4.10;;;;;;;;;;5041139;28;20209;-36
2022/06/20 11:37:09;;;;;;;8.05;4.40;;;;;;;;;;5029419;28;20237;-34
2022/06/20 11:39:46;;;;;;;5.53;3.58;;;;;;;;;;5029114;28;20201;-35
2022/06/20 11:42:38;;;;;;;5.80;4.00;;;;;;;;;;5026590;28;20198;-39
2022/06/20 11:45:15;;;;;;;6.93;3.90;;;;;;;;;;5022342;28;20210;-35
2022/06/20 11:47:53;;;;;;;6.60;3.78;;;;;;;;;;5023313;28;20226;-37
2022/06/20 11:50:35;;;;;;;6.70;3.90;;;;;;;;;;5011868;28;20214;-35
2022/06/20 11:53:15;;;;;;;6.60;3.83;;;;;;;;;;5021370;28;20207;-32
2022/06/20 12:03:28;;;;;;;5.20;3.88;;;;;;;;;;5055713;28;20206;-34
2022/06/20 12:06:00;;;;;;;7.03;3.92;;;;;;;;;;5068149;28;20221;-32
2022/06/20 12:08:31;;;;;;;6.50;4.07;;;;;;;;;;5091862;28;20200;-34
2022/06/20 12:11:00;;;;;;;9.50;3.95;;;;;;;;;;5078080;28;20220;-37
2022/06/20 12:13:38;;;;;;;8.70;3.72;;;;;;;;;;5069210;28;20217;-34
2022/06/20 12:16:11;;;;;;;7.28;3.65;;;;;;;;;;5066822;28;20229;-36
2022/06/20 12:24:30;;;;;;;6.35;3.33;;;;;;;;;;5092593;28;20203;-34
2022/06/20 12:26:57;;;;;;;6.57;3.30;;;;;;;;;;5080265;28;20251;-36
2022/06/20 12:29:26;;;;;;;9.35;3.40;;;;;;;;;;5077341;28;20514;-37
2022/06/20 12:31:55;;;;;;;12.00;3.63;;;;;;;;;;5071983;28;20202;-32
2022/06/20 12:34:37;;;;;;;4.88;2.80;;;;;;;;;;5069042;28;20198;-34
2022/06/20 12:37:11;;;;;;;5.57;2.60;;;;;;;;;;5075069;28;20228;-33
2022/06/20 12:39:40;;;;;;;4.35;2.78;;;;;;;;;;5074331;28;20192;-34
2022/06/20 12:42:12;;;;;;;5.28;3.10;;;;;;;;;;5071413;28;20208;-35
2022/06/20 12:44:46;;;;;;;4.75;3.03;;;;;;;;;;5080244;28;20204;-35
2022/06/20 12:47:24;;;;;;;3.30;3.00;;;;;;;;;;5073707;28;20229;-36
2022/06/20 12:50:02;;;;;;;6.57;2.88;;;;;;;;;;5066332;28;20210;-32
2022/06/20 12:52:37;;;;;;;4.95;3.35;;;;;;;;;;5075735;28;20201;-32
2022/06/20 12:55:09;;;;;;;7.95;3.45;;;;;;;;;;5073413;28;20204;-36
2022/06/20 12:57:52;;;;;;;6.90;3.17;;;;;;;;;;5066962;28;20225;-35
2022/06/20 13:00:21;;;;;;;10.63;3.28;;;;;;;;;;5061857;28;20276;-37
2022/06/20 13:03:09;;;;;;;6.47;3.53;;;;;;;;;;5076500;28;20220;-36
2022/06/20 13:05:44;;;;;;;3.58;3.10;;;;;;;;;;5073378;28;20228;-35
2022/06/20 13:08:24;;;;;;;5.10;3.45;;;;;;;;;;5073880;28;20193;-35
2022/06/20 13:10:58;;;;;;;5.88;3.35;;;;;;;;;;5072649;28;20205;-35
2022/06/20 13:13:32;;;;;;;6.18;3.50;;;;;;;;;;5066535;28;20206;-36
2022/06/20 13:16:05;;;;;;;6.82;3.20;;;;;;;;;;5075356;28;20230;-36
2022/06/20 13:18:43;;;;;;;10.20;3.53;;;;;;;;;;5073122;28;20205;-33
2022/06/20 13:21:16;;;;;;;8.38;3.53;;;;;;;;;;5068186;28;20205;-34
2022/06/20 13:23:52;;;;;;;4.30;2.95;;;;;;;;;;5091925;28;20200;-34
2022/06/20 13:26:24;;;;;;;6.18;4.03;;;;;;;;;;5081091;28;20230;-32
2022/06/20 13:28:54;;;;;;;11.75;4.22;;;;;;;;;;5063146;28;20204;-33
2022/06/20 13:31:23;;;;;;;4.40;3.22;;;;;;;;;;5078265;28;20442;-36
2022/06/20 13:33:51;;;;;;;9.25;4.00;;;;;;;;;;5068589;28;20206;-34
2022/06/20 13:36:24;;;;;;;13.48;3.92;;;;;;;;;;5076108;28;20221;-35
2022/06/20 13:38:57;;;;;;;6.30;3.30;;;;;;;;;;5091057;28;20257;-34
2022/06/20 13:41:27;;;;;;;6.63;3.45;;;;;;;;;;5083500;28;20214;-34
2022/06/20 13:44:02;;;;;;;5.90;3.58;;;;;;;;;;5064443;28;20261;-36
2022/06/20 13:46:32;;;;;;;6.10;3.40;;;;;;;;;;5093565;28;20293;-36
2022/06/20 13:49:04;;;;;;;8.32;3.55;;;;;;;;;;5069838;28;20207;-34
2022/06/20 13:51:36;;;;;;;7.35;3.50;;;;;;;;;;5077474;28;20513;-36
2022/06/20 13:54:07;;;;;;;7.68;3.15;;;;;;;;;;5073149;28;20216;-34
2022/06/20 13:56:37;;;;;;;4.15;3.30;;;;;;;;;;5071094;28;20235;-34
2022/06/20 13:59:16;;;;;;;6.32;3.60;;;;;;;;;;5080490;28;20208;-35
2022/06/20 14:01:44;;;;;;;6.05;2.80;;;;;;;;;;5080292;28;20208;-36
2022/06/20 14:04:13;;;;;;;5.40;3.13;;;;;;;;;;5067899;28;20201;-33
2022/06/20 14:06:43;;;;;;;4.35;2.75;;;;;;;;;;5080633;28;20225;-35
2022/06/20 14:09:16;;;;;;;7.82;3.47;;;;;;;;;;5073004;28;20304;-34
2022/06/20 14:11:45;;;;;;;8.60;2.90;;;;;;;;;;5064197;28;20208;-33
2022/06/20 14:14:18;;;;;;;8.70;3.03;;;;;;;;;;5086692;28;20195;-34
2022/06/20 14:16:47;;;;;;;4.78;2.80;;;;;;;;;;5073469;28;20231;-35
2022/06/20 14:19:17;;;;;;;6.75;3.05;;;;;;;;;;5071484;28;20216;-32
2022/06/20 14:21:45;;;;;;;5.35;2.90;;;;;;;;;;5081050;28;20212;-33
2022/06/20 14:24:19;;;;;;;3.50;2.60;;;;;;;;;;5072846;28;20217;-32
2022/06/20 14:26:47;;;;;;;7.35;3.25;;;;;;;;;;5068498;28;20235;-36
2022/06/20 14:29:18;;;;;;;6.13;3.13;;;;;;;;;;5068783;28;20292;-33
2022/06/20 14:31:52;;;;;;;9.50;3.67;;;;;;;;;;5071460;28;20219;-35
2022/06/20 14:34:22;;;;;;;9.13;3.33;;;;;;;;;;5059746;28;20199;-35
2022/06/20 14:36:52;;;;;;;11.20;3.42;;;;;;;;;;5080764;28;20280;-34
2022/06/20 14:39:23;;;;;;;6.88;3.35;;;;;;;;;;5073018;28;20214;-36
2022/06/20 14:41:58;;;;;;;4.38;2.85;;;;;;;;;;5073979;28;20219;-36
2022/06/20 14:44:30;;;;;;;8.70;3.72;;;;;;;;;;5091193;28;20200;-36
2022/06/20 14:47:00;;;;;;;10.02;3.28;;;;;;;;;;5089104;28;20249;-34
2022/06/20 14:49:29;;;;;;;8.38;3.63;;;;;;;;;;5061882;28;20212;-35
2022/06/20 14:52:00;;;;;;;8.13;3.13;;;;;;;;;;5084386;28;20204;-33
2022/06/20 14:54:32;;;;;;;5.00;3.45;;;;;;;;;;5090947;28;20187;-37
2022/06/20 14:57:07;;;;;;;6.80;3.10;;;;;;;;;;5071503;28;20226;-35
2022/06/20 14:59:38;;;;;;;9.55;3.40;;;;;;;;;;5075655;28;20254;-32
2022/06/20 15:02:09;;;;;;;6.00;3.55;;;;;;;;;;5086358;28;20227;-36
2022/06/20 15:04:42;;;;;;;6.00;3.38;;;;;;;;;;5073394;28;20208;-33
2022/06/20 15:07:14;;;;;;;5.85;3.65;;;;;;;;;;5076352;28;20215;-31
2022/06/20 15:09:44;;;;;;;4.75;3.25;;;;;;;;;;5091698;28;20612;-34
2022/06/20 15:12:22;;;;;;;3.35;2.95;;;;;;;;;;5070506;28;20200;-32
2022/06/20 15:14:53;;;;;;;4.90;3.30;;;;;;;;;;5069988;28;20209;-32
2022/06/20 15:17:22;;;;;;;5.65;3.75;;;;;;;;;;5065953;28;20236;-34
2022/06/20 15:19:51;;;;;;;8.88;3.92;;;;;;;;;;5070110;28;20215;-36
2022/06/20 15:22:22;;;;;;;6.57;3.67;;;;;;;;;;5079863;28;20196;-35
2022/06/20 15:24:54;;;;;;;4.80;3.40;;;;;;;;;;5071491;28;20195;-34
2022/06/20 15:27:23;;;;;;;6.15;3.20;;;;;;;;;;5057094;28;20330;-35